sensor_id;sensor_type;location;lat;lon;timestamp;pressure;altitude;pressure_sealevel;temperature;humidity
73103;BME280;61294;65.988;29.172;2023-02-24T00:01:51;96163.28;;;-12.09;100.00
73103;BME280;61294;65.988;29.172;2023-02-24T00:04:25;96156.53;;;-12.08;100.00
73103;BME280;61294;65.988;29.172;2023-02-24T00:06:50;96128.16;;;-12.19;100.00
73103;BME280;61294;65.988;29.172;2023-02-24T00:09:23;96160.94;;;-12.04;100.00
73103;BME280;61294;65.988;29.172;2023-02-24T00:11:56;96149.25;;;-12.01;100.00
73103;BME280;61294;65.988;29.172;2023-02-24T00:14:24;96161.75;;;-12.05;100.00
73103;BME280;61294;65.988;29.172;2023-02-24T00:16:51;96147.44;;;-12.03;100.00
73103;BME280;61294;65.988;29.172;2023-02-24T00:19:21;96128.28;;;-12.16;100.00
73103;BME280;61294;65.988;29.172;2023-02-24T00:21:48;96122.78;;;-12.06;100.00
73103;BME280;61294;65.988;29.172;2023-02-24T00:24:15;96150.09;;;-12.00;100.00
73103;BME280;61294;65.988;29.172;2023-02-24T00:26:41;96135.47;;;-12.06;100.00
73103;BME280;61294;65.988;29.172;2023-02-24T00:29:10;96146.03;;;-11.96;100.00
73103;BME280;61294;65.988;29.172;2023-02-24T00:31:36;96104.72;;;-12.13;100.00
73103;BME280;61294;65.988;29.172;2023-02-24T00:34:08;96136.81;;;-11.93;100.00
73103;BME280;61294;65.988;29.172;2023-02-24T00:36:37;96140.31;;;-11.91;100.00
73103;BME280;61294;65.988;29.172;2023-02-24T00:39:05;96141.16;;;-11.90;100.00
73103;BME280;61294;65.988;29.172;2023-02-24T00:41:43;96127.63;;;-11.91;100.00
73103;BME280;61294;65.988;29.172;2023-02-24T00:44:12;96131.06;;;-11.89;100.00
73103;BME280;61294;65.988;29.172;2023-02-24T00:46:40;96132.81;;;-11.88;100.00
73103;BME280;61294;65.988;29.172;2023-02-24T00:49:10;96131.13;;;-11.87;100.00
73103;BME280;61294;65.988;29.172;2023-02-24T00:51:40;96127.81;;;-11.86;100.00
73103;BME280;61294;65.988;29.172;2023-02-24T00:54:07;96084.94;;;-12.01;100.00
73103;BME280;61294;65.988;29.172;2023-02-24T00:56:34;96126.28;;;-11.83;100.00
73103;BME280;61294;65.988;29.172;2023-02-24T00:59:01;96120.31;;;-11.83;100.00
73103;BME280;61294;65.988;29.172;2023-02-24T01:01:29;96116.22;;;-11.80;100.00
73103;BME280;61294;65.988;29.172;2023-02-24T01:03:56;96108.50;;;-11.83;100.00
73103;BME280;61294;65.988;29.172;2023-02-24T01:06:27;96108.72;;;-11.76;100.00
73103;BME280;61294;65.988;29.172;2023-02-24T01:08:54;96102.84;;;-11.75;100.00
73103;BME280;61294;65.988;29.172;2023-02-24T01:11:24;96076.16;;;-11.87;100.00
73103;BME280;61294;65.988;29.172;2023-02-24T01:14:15;96105.47;;;-11.74;100.00
73103;BME280;61294;65.988;29.172;2023-02-24T01:16:42;96096.03;;;-11.76;100.00
73103;BME280;61294;65.988;29.172;2023-02-24T01:19:23;96105.41;;;-11.75;100.00
73103;BME280;61294;65.988;29.172;2023-02-24T01:21:49;96115.69;;;-11.72;100.00
73103;BME280;61294;65.988;29.172;2023-02-24T01:24:24;96104.84;;;-11.68;100.00
73103;BME280;61294;65.988;29.172;2023-02-24T01:26:50;96086.06;;;-11.72;100.00
73103;BME280;61294;65.988;29.172;2023-02-24T01:29:16;96080.84;;;-11.75;100.00
73103;BME280;61294;65.988;29.172;2023-02-24T01:31:41;96096.31;;;-11.69;100.00
73103;BME280;61294;65.988;29.172;2023-02-24T01:34:11;96053.25;;;-11.88;100.00
73103;BME280;61294;65.988;29.172;2023-02-24T01:36:40;96101.47;;;-11.67;100.00
73103;BME280;61294;65.988;29.172;2023-02-24T01:39:08;96088.09;;;-11.63;100.00
73103;BME280;61294;65.988;29.172;2023-02-24T01:41:40;96069.97;;;-11.72;100.00
73103;BME280;61294;65.988;29.172;2023-02-24T01:46:57;96054.78;;;-11.71;100.00
73103;BME280;61294;65.988;29.172;2023-02-24T01:49:33;96063.38;;;-11.67;100.00
73103;BME280;61294;65.988;29.172;2023-02-24T01:54:35;96075.44;;;-11.62;100.00
73103;BME280;61294;65.988;29.172;2023-02-24T01:57:03;96092.72;;;-11.53;100.00
73103;BME280;61294;65.988;29.172;2023-02-24T01:59:30;96070.75;;;-11.52;100.00
73103;BME280;61294;65.988;29.172;2023-02-24T02:02:01;96086.03;;;-11.51;100.00
73103;BME280;61294;65.988;29.172;2023-02-24T02:04:41;96076.72;;;-11.50;100.00
73103;BME280;61294;65.988;29.172;2023-02-24T02:07:11;96075.13;;;-11.48;100.00
73103;BME280;61294;65.988;29.172;2023-02-24T02:09:39;96065.09;;;-11.45;100.00
73103;BME280;61294;65.988;29.172;2023-02-24T02:12:08;96057.53;;;-11.43;100.00
73103;BME280;61294;65.988;29.172;2023-02-24T02:14:36;96066.00;;;-11.43;100.00
73103;BME280;61294;65.988;29.172;2023-02-24T02:17:32;96029.09;;;-11.56;100.00
73103;BME280;61294;65.988;29.172;2023-02-24T02:26:34;96027.44;;;-11.55;100.00
73103;BME280;61294;65.988;29.172;2023-02-24T02:37:07;95977.78;;;-11.70;100.00
73103;BME280;61294;65.988;29.172;2023-02-24T02:42:39;96032.44;;;-11.34;100.00
73103;BME280;61294;65.988;29.172;2023-02-24T02:45:28;96032.53;;;-11.33;100.00
73103;BME280;61294;65.988;29.172;2023-02-24T02:48:12;96027.50;;;-11.31;100.00
73103;BME280;61294;65.988;29.172;2023-02-24T02:50:56;96017.16;;;-11.36;100.00
73103;BME280;61294;65.988;29.172;2023-02-24T02:53:37;96009.56;;;-11.34;100.00
73103;BME280;61294;65.988;29.172;2023-02-24T02:56:16;96010.56;;;-11.31;100.00
73103;BME280;61294;65.988;29.172;2023-02-24T02:58:46;95956.31;;;-11.55;100.00
73103;BME280;61294;65.988;29.172;2023-02-24T03:01:15;96007.28;;;-11.28;100.00
73103;BME280;61294;65.988;29.172;2023-02-24T03:03:45;95977.13;;;-11.41;100.00
73103;BME280;61294;65.988;29.172;2023-02-24T03:06:40;95979.81;;;-11.38;100.00
73103;BME280;61294;65.988;29.172;2023-02-24T03:09:12;95958.44;;;-11.43;100.00
73103;BME280;61294;65.988;29.172;2023-02-24T03:11:45;95988.78;;;-11.24;100.00
73103;BME280;61294;65.988;29.172;2023-02-24T03:14:18;95973.44;;;-11.27;100.00
73103;BME280;61294;65.988;29.172;2023-02-24T03:16:48;95970.13;;;-11.24;100.00
73103;BME280;61294;65.988;29.172;2023-02-24T03:19:18;95964.78;;;-11.32;100.00
73103;BME280;61294;65.988;29.172;2023-02-24T03:21:51;95976.03;;;-11.25;100.00
73103;BME280;61294;65.988;29.172;2023-02-24T03:24:22;95937.25;;;-11.44;100.00
73103;BME280;61294;65.988;29.172;2023-02-24T03:27:00;95952.97;;;-11.30;100.00
73103;BME280;61294;65.988;29.172;2023-02-24T03:29:53;95921.72;;;-11.52;100.00
73103;BME280;61294;65.988;29.172;2023-02-24T03:32:28;95970.13;;;-11.24;100.00
73103;BME280;61294;65.988;29.172;2023-02-24T03:35:11;95972.59;;;-11.26;100.00
73103;BME280;61294;65.988;29.172;2023-02-24T03:37:38;95967.56;;;-11.24;100.00
73103;BME280;61294;65.988;29.172;2023-02-24T03:40:07;95964.13;;;-11.26;100.00
73103;BME280;61294;65.988;29.172;2023-02-24T03:42:47;95939.84;;;-11.42;100.00
73103;BME280;61294;65.988;29.172;2023-02-24T03:45:16;95973.50;;;-11.25;100.00
73103;BME280;61294;65.988;29.172;2023-02-24T03:47:42;95950.69;;;-11.24;100.00
73103;BME280;61294;65.988;29.172;2023-02-24T03:50:17;95966.78;;;-11.23;100.00
73103;BME280;61294;65.988;29.172;2023-02-24T03:55:23;95927.41;;;-11.35;100.00
73103;BME280;61294;65.988;29.172;2023-02-24T03:58:04;95952.38;;;-11.23;100.00
73103;BME280;61294;65.988;29.172;2023-02-24T04:05:50;95950.19;;;-11.14;100.00
73103;BME280;61294;65.988;29.172;2023-02-24T04:08:20;95961.31;;;-11.10;100.00
73103;BME280;61294;65.988;29.172;2023-02-24T04:11:04;95953.78;;;-11.08;100.00
73103;BME280;61294;65.988;29.172;2023-02-24T04:13:42;95948.72;;;-11.07;100.00
73103;BME280;61294;65.988;29.172;2023-02-24T04:16:21;95951.22;;;-11.08;100.00
73103;BME280;61294;65.988;29.172;2023-02-24T04:18:56;95913.34;;;-11.25;100.00
73103;BME280;61294;65.988;29.172;2023-02-24T04:21:26;95918.53;;;-11.22;100.00
73103;BME280;61294;65.988;29.172;2023-02-24T04:23:54;95958.13;;;-11.04;100.00
73103;BME280;61294;65.988;29.172;2023-02-24T04:26:21;95904.69;;;-11.30;100.00
73103;BME280;61294;65.988;29.172;2023-02-24T04:28:49;95950.50;;;-11.04;100.00
73103;BME280;61294;65.988;29.172;2023-02-24T04:31:17;95955.56;;;-11.04;100.00
73103;BME280;61294;65.988;29.172;2023-02-24T04:33:45;95951.28;;;-11.07;100.00
73103;BME280;61294;65.988;29.172;2023-02-24T04:36:19;95940.31;;;-11.04;100.00
73103;BME280;61294;65.988;29.172;2023-02-24T04:38:45;95936.78;;;-11.09;100.00
73103;BME280;61294;65.988;29.172;2023-02-24T04:41:13;95932.19;;;-11.20;100.00
73103;BME280;61294;65.988;29.172;2023-02-24T04:43:47;95953.81;;;-11.07;100.00
73103;BME280;61294;65.988;29.172;2023-02-24T04:46:13;95932.41;;;-11.14;100.00
73103;BME280;61294;65.988;29.172;2023-02-24T04:48:39;95935.78;;;-11.13;100.00
73103;BME280;61294;65.988;29.172;2023-02-24T04:51:05;95916.00;;;-11.22;100.00
73103;BME280;61294;65.988;29.172;2023-02-24T04:53:31;95937.47;;;-11.14;100.00
73103;BME280;61294;65.988;29.172;2023-02-24T04:56:01;95937.47;;;-11.14;100.00
73103;BME280;61294;65.988;29.172;2023-02-24T04:58:32;95939.13;;;-11.16;100.00
73103;BME280;61294;65.988;29.172;2023-02-24T05:00:58;95936.44;;;-11.19;100.00
73103;BME280;61294;65.988;29.172;2023-02-24T05:03:25;95938.19;;;-11.18;100.00
73103;BME280;61294;65.988;29.172;2023-02-24T05:05:57;95896.75;;;-11.39;100.00
73103;BME280;61294;65.988;29.172;2023-02-24T05:08:26;95932.25;;;-11.18;100.00
73103;BME280;61294;65.988;29.172;2023-02-24T05:10:52;95924.56;;;-11.20;100.00
73103;BME280;61294;65.988;29.172;2023-02-24T05:13:22;95935.47;;;-11.22;100.00
73103;BME280;61294;65.988;29.172;2023-02-24T05:15:52;95897.56;;;-11.40;100.00
73103;BME280;61294;65.988;29.172;2023-02-24T05:18:18;95939.69;;;-11.23;100.00
73103;BME280;61294;65.988;29.172;2023-02-24T05:20:52;95890.31;;;-11.54;100.00
73103;BME280;61294;65.988;29.172;2023-02-24T05:23:45;95936.28;;;-11.23;100.00
73103;BME280;61294;65.988;29.172;2023-02-24T05:26:14;95898.25;;;-11.45;100.00
73103;BME280;61294;65.988;29.172;2023-02-24T05:28:42;95945.00;;;-11.17;100.00
73103;BME280;61294;65.988;29.172;2023-02-24T05:31:10;95902.50;;;-11.45;100.00
73103;BME280;61294;65.988;29.172;2023-02-24T05:33:40;95921.63;;;-11.31;100.00
73103;BME280;61294;65.988;29.172;2023-02-24T05:36:17;95925.22;;;-11.25;100.00
73103;BME280;61294;65.988;29.172;2023-02-24T05:38:47;95938.13;;;-11.19;100.00
73103;BME280;61294;65.988;29.172;2023-02-24T05:41:16;95917.63;;;-11.24;100.00
73103;BME280;61294;65.988;29.172;2023-02-24T05:43:43;95932.88;;;-11.24;100.00
73103;BME280;61294;65.988;29.172;2023-02-24T05:46:16;95895.81;;;-11.41;100.00
73103;BME280;61294;65.988;29.172;2023-02-24T05:48:42;95922.63;;;-11.27;100.00
73103;BME280;61294;65.988;29.172;2023-02-24T05:51:09;95907.78;;;-11.39;100.00
73103;BME280;61294;65.988;29.172;2023-02-24T05:53:38;95925.91;;;-11.30;100.00
73103;BME280;61294;65.988;29.172;2023-02-24T05:56:08;95931.75;;;-11.32;100.00
73103;BME280;61294;65.988;29.172;2023-02-24T05:58:33;95927.41;;;-11.35;100.00
73103;BME280;61294;65.988;29.172;2023-02-24T06:01:09;95892.91;;;-11.52;100.00
73103;BME280;61294;65.988;29.172;2023-02-24T06:03:42;95916.16;;;-11.41;100.00
73103;BME280;61294;65.988;29.172;2023-02-24T06:06:12;95906.41;;;-11.53;100.00
73103;BME280;61294;65.988;29.172;2023-02-24T06:08:39;95890.88;;;-11.63;100.00
73103;BME280;61294;65.988;29.172;2023-02-24T06:11:16;95938.09;;;-11.43;100.00
73103;BME280;61294;65.988;29.172;2023-02-24T06:13:44;95927.69;;;-11.51;100.00
73103;BME280;61294;65.988;29.172;2023-02-24T06:16:17;95923.09;;;-11.60;100.00
73103;BME280;61294;65.988;29.172;2023-02-24T06:18:47;95907.66;;;-11.66;100.00
73103;BME280;61294;65.988;29.172;2023-02-24T06:21:14;95945.63;;;-11.47;100.00
73103;BME280;61294;65.988;29.172;2023-02-24T06:23:40;95935.66;;;-11.40;100.00
73103;BME280;61294;65.988;29.172;2023-02-24T06:26:07;95926.56;;;-11.35;100.00
73103;BME280;61294;65.988;29.172;2023-02-24T06:28:45;95882.00;;;-11.50;100.00
73103;BME280;61294;65.988;29.172;2023-02-24T06:31:11;95901.09;;;-11.37;100.00
73103;BME280;61294;65.988;29.172;2023-02-24T06:33:39;95910.22;;;-11.18;100.00
73103;BME280;61294;65.988;29.172;2023-02-24T06:36:06;95914.50;;;-11.17;100.00
73103;BME280;61294;65.988;29.172;2023-02-24T06:38:33;95902.59;;;-11.18;100.00
73103;BME280;61294;65.988;29.172;2023-02-24T06:41:01;95933.94;;;-10.93;100.00
73103;BME280;61294;65.988;29.172;2023-02-24T06:43:43;95909.50;;;-10.89;100.00
73103;BME280;61294;65.988;29.172;2023-02-24T06:46:11;95931.41;;;-10.67;100.00
73103;BME280;61294;65.988;29.172;2023-02-24T06:48:37;95929.28;;;-10.55;100.00
73103;BME280;61294;65.988;29.172;2023-02-24T06:51:10;95892.41;;;-10.68;100.00
73103;BME280;61294;65.988;29.172;2023-02-24T06:53:47;95911.13;;;-10.40;100.00
73103;BME280;61294;65.988;29.172;2023-02-24T06:56:15;95928.22;;;-10.36;100.00
73103;BME280;61294;65.988;29.172;2023-02-24T06:58:47;95929.06;;;-10.35;100.00
73103;BME280;61294;65.988;29.172;2023-02-24T07:01:20;95926.81;;;-10.25;100.00
73103;BME280;61294;65.988;29.172;2023-02-24T07:03:52;95928.25;;;-10.07;100.00
73103;BME280;61294;65.988;29.172;2023-02-24T07:06:44;95926.00;;;-9.96;100.00
73103;BME280;61294;65.988;29.172;2023-02-24T07:09:14;95930.59;;;-9.86;100.00
73103;BME280;61294;65.988;29.172;2023-02-24T07:11:44;95916.06;;;-9.89;100.00
73103;BME280;61294;65.988;29.172;2023-02-24T07:14:12;95927.28;;;-9.82;100.00
73103;BME280;61294;65.988;29.172;2023-02-24T07:16:40;95922.34;;;-9.77;100.00
73103;BME280;61294;65.988;29.172;2023-02-24T07:19:11;95919.94;;;-9.73;100.00
73103;BME280;61294;65.988;29.172;2023-02-24T07:21:43;95926.81;;;-9.70;100.00
73103;BME280;61294;65.988;29.172;2023-02-24T07:24:16;95919.13;;;-9.72;100.00
73103;BME280;61294;65.988;29.172;2023-02-24T07:26:57;95917.25;;;-9.77;100.00
73103;BME280;61294;65.988;29.172;2023-02-24T07:29:26;95909.00;;;-9.68;100.00
73103;BME280;61294;65.988;29.172;2023-02-24T07:31:53;95863.56;;;-9.83;100.00
73103;BME280;61294;65.988;29.172;2023-02-24T07:34:23;95904.44;;;-9.50;100.00
73103;BME280;61294;65.988;29.172;2023-02-24T07:36:51;95878.97;;;-9.50;100.00
73103;BME280;61294;65.988;29.172;2023-02-24T07:39:17;95883.34;;;-9.46;100.00
73103;BME280;61294;65.988;29.172;2023-02-24T07:41:44;95919.09;;;-9.12;100.00
73103;BME280;61294;65.988;29.172;2023-02-24T07:44:11;95885.66;;;-9.23;100.00
73103;BME280;61294;65.988;29.172;2023-02-24T07:46:38;95921.66;;;-9.11;100.00
73103;BME280;61294;65.988;29.172;2023-02-24T07:49:05;95919.94;;;-9.13;100.00
73103;BME280;61294;65.988;29.172;2023-02-24T07:51:34;95920.25;;;-9.01;100.00
73103;BME280;61294;65.988;29.172;2023-02-24T07:54:01;95911.94;;;-8.94;100.00
73103;BME280;61294;65.988;29.172;2023-02-24T07:56:29;95911.53;;;-8.77;100.00
73103;BME280;61294;65.988;29.172;2023-02-24T07:59:05;95914.22;;;-8.71;100.00
73103;BME280;61294;65.988;29.172;2023-02-24T08:01:35;95921.75;;;-8.76;100.00
73103;BME280;61294;65.988;29.172;2023-02-24T08:04:06;95905.59;;;-8.76;100.00
73103;BME280;61294;65.988;29.172;2023-02-24T08:06:41;95916.22;;;-8.59;100.00
73103;BME280;61294;65.988;29.172;2023-02-24T08:09:16;95887.66;;;-8.78;100.00
73103;BME280;61294;65.988;29.172;2023-02-24T08:11:50;95921.91;;;-8.70;100.00
73103;BME280;61294;65.988;29.172;2023-02-24T08:14:20;95915.22;;;-8.66;100.00
73103;BME280;61294;65.988;29.172;2023-02-24T08:16:51;95929.84;;;-8.59;100.00
73103;BME280;61294;65.988;29.172;2023-02-24T08:19:19;95929.09;;;-8.56;100.00
73103;BME280;61294;65.988;29.172;2023-02-24T08:21:51;95922.19;;;-8.59;100.00
73103;BME280;61294;65.988;29.172;2023-02-24T08:24:21;95929.09;;;-8.56;100.00
73103;BME280;61294;65.988;29.172;2023-02-24T08:26:55;95897.06;;;-8.77;100.00
73103;BME280;61294;65.988;29.172;2023-02-24T08:29:35;95934.25;;;-8.53;100.00
73103;BME280;61294;65.988;29.172;2023-02-24T08:32:10;95915.66;;;-8.49;100.00
73103;BME280;61294;65.988;29.172;2023-02-24T08:34:37;95934.69;;;-8.35;100.00
73103;BME280;61294;65.988;29.172;2023-02-24T08:37:03;95921.09;;;-8.34;100.00
73103;BME280;61294;65.988;29.172;2023-02-24T08:39:30;95868.50;;;-8.63;100.00
73103;BME280;61294;65.988;29.172;2023-02-24T08:41:58;95888.31;;;-8.53;100.00
73103;BME280;61294;65.988;29.172;2023-02-24T08:44:24;95918.22;;;-8.47;100.00
73103;BME280;61294;65.988;29.172;2023-02-24T08:46:53;95911.38;;;-8.48;100.00
73103;BME280;61294;65.988;29.172;2023-02-24T08:49:19;95913.56;;;-8.27;100.00
73103;BME280;61294;65.988;29.172;2023-02-24T08:51:47;95913.88;;;-8.15;100.00
73103;BME280;61294;65.988;29.172;2023-02-24T08:54:19;95910.91;;;-7.95;100.00
73103;BME280;61294;65.988;29.172;2023-02-24T08:56:54;95885.38;;;-8.32;100.00
73103;BME280;61294;65.988;29.172;2023-02-24T08:59:22;95906.81;;;-8.25;100.00
73103;BME280;61294;65.988;29.172;2023-02-24T09:02:20;95894.63;;;-8.37;100.00
73103;BME280;61294;65.988;29.172;2023-02-24T09:07:29;95879.34;;;-8.36;100.00
73103;BME280;61294;65.988;29.172;2023-02-24T09:10:02;95915.75;;;-8.08;100.00
73103;BME280;61294;65.988;29.172;2023-02-24T09:12:30;95884.00;;;-8.19;100.00
73103;BME280;61294;65.988;29.172;2023-02-24T09:15:02;95905.69;;;-8.00;100.00
73103;BME280;61294;65.988;29.172;2023-02-24T09:17:32;95903.97;;;-8.01;100.00
73103;BME280;61294;65.988;29.172;2023-02-24T09:20:16;95894.19;;;-7.81;100.00
73103;BME280;61294;65.988;29.172;2023-02-24T09:22:55;95902.50;;;-7.91;100.00
73103;BME280;61294;65.988;29.172;2023-02-24T09:25:44;95916.06;;;-7.94;100.00
73103;BME280;61294;65.988;29.172;2023-02-24T09:28:24;95915.56;;;-7.79;100.00
73103;BME280;61294;65.988;29.172;2023-02-24T09:30:53;95919.94;;;-7.73;100.00
73103;BME280;61294;65.988;29.172;2023-02-24T09:35:58;95913.13;;;-7.73;100.00
73103;BME280;61294;65.988;29.172;2023-02-24T09:38:42;95923.31;;;-7.74;100.00
73103;BME280;61294;65.988;29.172;2023-02-24T09:44:29;95902.03;;;-7.73;100.00
73103;BME280;61294;65.988;29.172;2023-02-24T09:47:25;95905.50;;;-7.70;100.00
73103;BME280;61294;65.988;29.172;2023-02-24T09:52:58;95913.28;;;-7.24;100.00
73103;BME280;61294;65.988;29.172;2023-02-24T09:55:48;95898.03;;;-7.21;100.00
73103;BME280;61294;65.988;29.172;2023-02-24T09:58:45;95910.66;;;-7.29;100.00
73103;BME280;61294;65.988;29.172;2023-02-24T10:01:30;95903.06;;;-7.24;100.00
73103;BME280;61294;65.988;29.172;2023-02-24T10:04:20;95910.97;;;-7.12;100.00
73103;BME280;61294;65.988;29.172;2023-02-24T10:07:09;95916.81;;;-7.19;100.00
73103;BME280;61294;65.988;29.172;2023-02-24T10:17:26;95898.72;;;-6.85;100.00
73103;BME280;61294;65.988;29.172;2023-02-24T10:20:18;95889.94;;;-6.98;100.00
73103;BME280;61294;65.988;29.172;2023-02-24T10:23:01;95911.22;;;-6.99;100.00
73103;BME280;61294;65.988;29.172;2023-02-24T10:25:45;95908.53;;;-7.05;100.00
73103;BME280;61294;65.988;29.172;2023-02-24T10:28:29;95906.81;;;-7.08;100.00
73103;BME280;61294;65.988;29.172;2023-02-24T10:31:10;95916.84;;;-7.17;100.00
73103;BME280;61294;65.988;29.172;2023-02-24T10:33:53;95889.94;;;-7.41;100.00
73103;BME280;61294;65.988;29.172;2023-02-24T10:36:22;95923.59;;;-7.21;100.00
73103;BME280;61294;65.988;29.172;2023-02-24T10:39:16;95914.97;;;-7.26;100.00
73103;BME280;61294;65.988;29.172;2023-02-24T10:41:50;95906.44;;;-7.26;100.00
73103;BME280;61294;65.988;29.172;2023-02-24T10:44:23;95923.22;;;-6.98;100.00
73103;BME280;61294;65.988;29.172;2023-02-24T10:47:02;95889.50;;;-7.20;100.00
73103;BME280;61294;65.988;29.172;2023-02-24T10:49:44;95884.06;;;-6.92;100.00
73103;BME280;61294;65.988;29.172;2023-02-24T10:58:21;95895.34;;;-6.81;100.00
73103;BME280;61294;65.988;29.172;2023-02-24T11:01:16;95879.84;;;-6.90;100.00
73103;BME280;61294;65.988;29.172;2023-02-24T11:06:30;95918.84;;;-6.56;100.00
73103;BME280;61294;65.988;29.172;2023-02-24T11:09:25;95892.41;;;-6.55;100.00
73103;BME280;61294;65.988;29.172;2023-02-24T11:14:54;95899.44;;;-6.44;100.00
73103;BME280;61294;65.988;29.172;2023-02-24T11:17:54;95915.59;;;-6.48;100.00
73103;BME280;61294;65.988;29.172;2023-02-24T11:22:52;95909.69;;;-6.44;100.00
73103;BME280;61294;65.988;29.172;2023-02-24T11:25:38;95861.50;;;-6.66;100.00
73103;BME280;61294;65.988;29.172;2023-02-24T11:31:18;95913.13;;;-6.40;100.00
73103;BME280;61294;65.988;29.172;2023-02-24T11:37:19;95912.09;;;-6.51;100.00
73103;BME280;61294;65.988;29.172;2023-02-24T11:40:21;95887.38;;;-6.49;100.00
73103;BME280;61294;65.988;29.172;2023-02-24T11:42:59;95878.91;;;-6.45;100.00
73103;BME280;61294;65.988;29.172;2023-02-24T11:56:12;95910.81;;;-6.77;100.00
73103;BME280;61294;65.988;29.172;2023-02-24T11:58:45;95898.66;;;-6.87;100.00
73103;BME280;61294;65.988;29.172;2023-02-24T12:03:54;95862.34;;;-7.13;100.00
73103;BME280;61294;65.988;29.172;2023-02-24T12:06:32;95892.53;;;-6.97;100.00
73103;BME280;61294;65.988;29.172;2023-02-24T12:09:12;95905.81;;;-6.69;100.00
73103;BME280;61294;65.988;29.172;2023-02-24T12:12:07;95896.44;;;-6.68;100.00
73103;BME280;61294;65.988;29.172;2023-02-24T12:14:58;95918.06;;;-6.52;100.00
73103;BME280;61294;65.988;29.172;2023-02-24T12:17:32;95921.13;;;-6.23;100.00
73103;BME280;61294;65.988;29.172;2023-02-24T12:20:05;95899.31;;;-5.98;100.00
73103;BME280;61294;65.988;29.172;2023-02-24T12:25:25;95917.41;;;-5.85;100.00
73103;BME280;61294;65.988;29.172;2023-02-24T12:28:11;95902.53;;;-6.11;100.00
73103;BME280;61294;65.988;29.172;2023-02-24T12:46:53;95886.00;;;-6.79;100.00
73103;BME280;61294;65.988;29.172;2023-02-24T12:57:47;95904.50;;;-6.48;100.00
73103;BME280;61294;65.988;29.172;2023-02-24T13:05:51;95889.41;;;-6.80;100.00
73103;BME280;61294;65.988;29.172;2023-02-24T13:13:54;95879.22;;;-6.77;100.00
73103;BME280;61294;65.988;29.172;2023-02-24T13:16:33;95911.00;;;-6.66;100.00
73103;BME280;61294;65.988;29.172;2023-02-24T13:24:55;95924.09;;;-6.95;100.00
73103;BME280;61294;65.988;29.172;2023-02-24T13:27:28;95925.91;;;-6.90;100.00
73103;BME280;61294;65.988;29.172;2023-02-24T13:29:57;95931.91;;;-6.88;100.00
73103;BME280;61294;65.988;29.172;2023-02-24T13:32:40;95897.19;;;-7.18;100.00
73103;BME280;61294;65.988;29.172;2023-02-24T13:37:46;95931.91;;;-6.87;100.00
73103;BME280;61294;65.988;29.172;2023-02-24T13:42:42;95919.94;;;-6.91;100.00
73103;BME280;61294;65.988;29.172;2023-02-24T13:47:56;95913.84;;;-6.96;100.00
73103;BME280;61294;65.988;29.172;2023-02-24T13:53:19;95920.41;;;-7.11;100.00
73103;BME280;61294;65.988;29.172;2023-02-24T14:01:21;95928.00;;;-7.15;100.00
73103;BME280;61294;65.988;29.172;2023-02-24T14:07:18;95911.16;;;-7.47;100.00
73103;BME280;61294;65.988;29.172;2023-02-24T14:09:50;95924.03;;;-7.42;100.00
73103;BME280;61294;65.988;29.172;2023-02-24T14:12:22;95917.91;;;-7.49;100.00
73103;BME280;61294;65.988;29.172;2023-02-24T14:14:49;95920.47;;;-7.49;100.00
73103;BME280;61294;65.988;29.172;2023-02-24T14:17:21;95900.47;;;-7.67;100.00
73103;BME280;61294;65.988;29.172;2023-02-24T14:19:50;95927.81;;;-7.63;100.00
73103;BME280;61294;65.988;29.172;2023-02-24T14:22:18;95920.91;;;-7.67;100.00
73103;BME280;61294;65.988;29.172;2023-02-24T14:24:45;95905.16;;;-7.85;100.00
73103;BME280;61294;65.988;29.172;2023-02-24T14:27:23;95928.47;;;-7.73;100.00
73103;BME280;61294;65.988;29.172;2023-02-24T14:29:51;95932.00;;;-7.68;100.00
73103;BME280;61294;65.988;29.172;2023-02-24T14:32:24;95936.06;;;-7.76;100.00
73103;BME280;61294;65.988;29.172;2023-02-24T14:34:50;95939.19;;;-7.89;100.00
73103;BME280;61294;65.988;29.172;2023-02-24T14:37:21;95934.84;;;-7.92;100.00
73103;BME280;61294;65.988;29.172;2023-02-24T14:39:52;95927.97;;;-7.94;100.00
73103;BME280;61294;65.988;29.172;2023-02-24T14:42:20;95932.09;;;-8.00;100.00
73103;BME280;61294;65.988;29.172;2023-02-24T14:44:51;95931.00;;;-8.09;100.00
73103;BME280;61294;65.988;29.172;2023-02-24T14:47:20;95941.19;;;-8.11;100.00
73103;BME280;61294;65.988;29.172;2023-02-24T14:50:00;95929.94;;;-8.21;100.00
73103;BME280;61294;65.988;29.172;2023-02-24T14:52:45;95935.13;;;-8.16;100.00
73103;BME280;61294;65.988;29.172;2023-02-24T14:55:25;95923.78;;;-8.27;100.00
73103;BME280;61294;65.988;29.172;2023-02-24T14:58:20;95915.06;;;-8.36;100.00
73103;BME280;61294;65.988;29.172;2023-02-24T15:00:49;95926.13;;;-8.35;100.00
73103;BME280;61294;65.988;29.172;2023-02-24T15:03:17;95918.03;;;-8.55;100.00
73103;BME280;61294;65.988;29.172;2023-02-24T15:05:48;95941.28;;;-8.43;100.00
73103;BME280;61294;65.988;29.172;2023-02-24T15:08:27;95940.44;;;-8.43;100.00
73103;BME280;61294;65.988;29.172;2023-02-24T15:10:54;95942.88;;;-8.48;100.00
73103;BME280;61294;65.988;29.172;2023-02-24T15:13:39;95936.59;;;-8.61;100.00
73103;BME280;61294;65.988;29.172;2023-02-24T15:16:28;95946.94;;;-8.56;100.00
73103;BME280;61294;65.988;29.172;2023-02-24T15:18:58;95941.03;;;-8.54;100.00
73103;BME280;61294;65.988;29.172;2023-02-24T15:21:33;95943.38;;;-8.63;100.00
73103;BME280;61294;65.988;29.172;2023-02-24T15:24:16;95945.81;;;-8.68;100.00
73103;BME280;61294;65.988;29.172;2023-02-24T15:26:57;95932.03;;;-8.73;100.00
73103;BME280;61294;65.988;29.172;2023-02-24T15:29:25;95951.84;;;-8.64;100.00
73103;BME280;61294;65.988;29.172;2023-02-24T15:31:57;95945.88;;;-8.64;100.00
73103;BME280;61294;65.988;29.172;2023-02-24T15:34:26;95931.94;;;-8.77;100.00